Time;durP1;ratioP1;P1;durP2;ratioP2;P2;SDS_P1;SDS_P2;PMS_P1;PMS_P2;Temp;Humidity;BMP_temperature;BMP_pressure;BME280_temperature;BME280_humidity;BME280_pressure;Samples;Min_cycle;Max_cycle;Signal;HPM_P1;HPM_P2
2023/01/18 00:00:29;;;;;;;12.10;2.05;;;;;;;;;;5023496;28;20696;-74
2023/01/18 00:02:55;;;;;;;11.00;2.17;;;;;;;;;;5022546;28;20033;-74
2023/01/18 00:05:23;;;;;;;10.48;2.05;;;;;;;;;;5013572;28;20055;-74
2023/01/18 00:07:49;;;;;;;7.78;2.33;;;;;;;;;;5020372;28;20155;-75
2023/01/18 00:10:14;;;;;;;10.13;2.40;;;;;;;;;;5017045;28;20552;-73
2023/01/18 00:12:40;;;;;;;18.08;2.50;;;;;;;;;;5019997;28;20285;-73
2023/01/18 00:15:11;;;;;;;11.37;2.30;;;;;;;;;;5020074;28;20033;-74
2023/01/18 00:17:55;;;;;;;15.05;2.80;;;;;;;;;;5022069;28;20288;-73
2023/01/18 00:20:23;;;;;;;8.65;2.42;;;;;;;;;;5022577;28;20145;-73
2023/01/18 00:22:49;;;;;;;12.05;2.90;;;;;;;;;;5021734;28;20512;-74
2023/01/18 00:25:15;;;;;;;14.63;3.72;;;;;;;;;;5022860;28;20041;-73
2023/01/18 00:27:48;;;;;;;16.25;2.78;;;;;;;;;;5022470;28;20029;-74
2023/01/18 00:30:16;;;;;;;13.15;2.60;;;;;;;;;;5022015;28;20650;-75
2023/01/18 00:32:41;;;;;;;10.85;2.45;;;;;;;;;;5022429;28;20113;-72
2023/01/18 00:35:08;;;;;;;10.02;3.17;;;;;;;;;;5022201;28;20147;-74
2023/01/18 00:37:34;;;;;;;6.15;1.98;;;;;;;;;;5022233;28;20503;-74
2023/01/18 00:39:59;;;;;;;10.88;2.70;;;;;;;;;;5022342;28;20644;-74
2023/01/18 00:45:09;;;;;;;12.25;2.85;;;;;;;;;;5021866;28;20489;-74
2023/01/18 00:47:34;;;;;;;12.52;3.35;;;;;;;;;;5036718;28;20059;-74
2023/01/18 00:50:00;;;;;;;12.90;2.90;;;;;;;;;;5039211;28;20421;-74
2023/01/18 00:52:25;;;;;;;11.07;2.92;;;;;;;;;;5042649;28;20295;-74
2023/01/18 00:54:51;;;;;;;10.68;3.00;;;;;;;;;;5041786;28;20404;-73
2023/01/18 00:57:18;;;;;;;17.77;3.67;;;;;;;;;;5040029;28;20487;-74
2023/01/18 00:59:45;;;;;;;9.68;3.05;;;;;;;;;;5041206;28;20094;-74
2023/01/18 01:02:11;;;;;;;11.98;3.30;;;;;;;;;;5042271;28;20033;-74
2023/01/18 01:07:22;;;;;;;10.70;3.40;;;;;;;;;;5040324;28;20036;-73
2023/01/18 01:09:48;;;;;;;9.93;2.95;;;;;;;;;;5042228;28;20266;-74
2023/01/18 01:26:09;;;;;;;11.43;4.22;;;;;;;;;;5021394;28;20048;-74
2023/01/18 01:28:37;;;;;;;17.20;4.47;;;;;;;;;;5019377;28;20408;-73
2023/01/18 01:31:04;;;;;;;21.73;4.30;;;;;;;;;;5021774;28;20051;-73
2023/01/18 01:33:30;;;;;;;17.17;4.15;;;;;;;;;;5002512;28;20107;-73
2023/01/18 01:35:57;;;;;;;12.63;4.05;;;;;;;;;;5001912;28;20531;-73
2023/01/18 01:38:22;;;;;;;14.98;5.43;;;;;;;;;;5019455;28;20641;-75
2023/01/18 01:40:58;;;;;;;14.05;4.35;;;;;;;;;;5025841;28;20285;-77
2023/01/18 01:43:37;;;;;;;16.75;4.25;;;;;;;;;;5027504;28;20052;-75
2023/01/18 01:46:03;;;;;;;12.18;4.47;;;;;;;;;;5024109;28;20055;-75
2023/01/18 01:48:28;;;;;;;13.60;4.43;;;;;;;;;;5022412;28;20043;-76
2023/01/18 01:50:54;;;;;;;17.02;4.20;;;;;;;;;;5011065;28;20033;-75
2023/01/18 01:53:19;;;;;;;20.10;4.60;;;;;;;;;;5003374;28;20044;-76
2023/01/18 01:55:45;;;;;;;11.48;3.67;;;;;;;;;;5003493;28;20567;-76
2023/01/18 01:58:30;;;;;;;16.30;4.38;;;;;;;;;;5004564;28;20029;-76
2023/01/18 02:00:56;;;;;;;12.80;3.88;;;;;;;;;;5009556;28;20386;-76
2023/01/18 02:03:22;;;;;;;12.85;3.75;;;;;;;;;;5010700;28;20037;-76
2023/01/18 02:05:51;;;;;;;12.27;3.53;;;;;;;;;;5007059;28;20421;-76
2023/01/18 02:08:21;;;;;;;12.77;4.07;;;;;;;;;;5007025;28;20450;-77
2023/01/18 02:10:48;;;;;;;14.68;3.70;;;;;;;;;;5006340;28;20115;-75
2023/01/18 02:13:13;;;;;;;13.88;3.65;;;;;;;;;;5003442;28;20033;-77
2023/01/18 02:15:43;;;;;;;10.32;3.83;;;;;;;;;;5006215;28;20032;-76
2023/01/18 02:18:18;;;;;;;9.88;3.53;;;;;;;;;;5004128;28;20037;-74
2023/01/18 02:20:50;;;;;;;12.35;3.30;;;;;;;;;;5004642;28;20037;-77
2023/01/18 02:23:33;;;;;;;15.93;3.40;;;;;;;;;;5003579;28;20029;-76
2023/01/18 02:26:02;;;;;;;15.23;4.13;;;;;;;;;;5025241;28;20507;-73
2023/01/18 02:28:36;;;;;;;12.98;3.88;;;;;;;;;;5020753;28;20025;-73
2023/01/18 02:31:16;;;;;;;13.63;3.63;;;;;;;;;;5020834;28;20277;-73
2023/01/18 02:34:00;;;;;;;15.10;3.75;;;;;;;;;;5020888;28;20114;-73
2023/01/18 02:36:43;;;;;;;10.38;3.28;;;;;;;;;;5023081;28;20033;-73
2023/01/18 02:39:22;;;;;;;16.92;3.33;;;;;;;;;;5024924;28;20554;-76
2023/01/18 02:47:25;;;;;;;20.55;3.50;;;;;;;;;;5028371;28;20037;-75
2023/01/18 02:49:50;;;;;;;10.38;3.03;;;;;;;;;;5029049;28;20033;-75
2023/01/18 02:52:34;;;;;;;17.70;4.30;;;;;;;;;;5030627;28;20512;-76
2023/01/18 02:54:59;;;;;;;10.93;3.50;;;;;;;;;;5030884;28;20036;-76
2023/01/18 02:57:25;;;;;;;11.65;3.00;;;;;;;;;;5032081;28;20626;-76
2023/01/18 02:59:53;;;;;;;16.25;3.95;;;;;;;;;;5028872;28;20143;-76
2023/01/18 03:02:23;;;;;;;6.75;3.20;;;;;;;;;;5031858;28;20482;-76
2023/01/18 03:04:54;;;;;;;11.90;3.10;;;;;;;;;;5030164;28;20112;-76
2023/01/18 03:07:31;;;;;;;8.00;2.25;;;;;;;;;;5030650;28;20057;-77
2023/01/18 03:10:02;;;;;;;10.35;2.92;;;;;;;;;;5025524;28;20401;-73
2023/01/18 03:12:44;;;;;;;13.98;2.63;;;;;;;;;;5014027;28;20026;-73
2023/01/18 03:15:22;;;;;;;14.13;3.08;;;;;;;;;;5001952;28;20042;-73
2023/01/18 03:17:58;;;;;;;13.45;2.42;;;;;;;;;;5003484;28;20502;-72
2023/01/18 03:20:26;;;;;;;13.40;2.63;;;;;;;;;;4984063;28;20064;-73
2023/01/18 03:25:47;;;;;;;9.50;2.83;;;;;;;;;;4983718;28;20212;-73
2023/01/18 03:33:46;;;;;;;6.65;2.78;;;;;;;;;;4987259;28;20034;-76
2023/01/18 03:36:15;;;;;;;18.13;2.83;;;;;;;;;;4985597;28;20096;-72
2023/01/18 03:38:42;;;;;;;12.13;2.45;;;;;;;;;;4984054;28;20642;-72
2023/01/18 03:41:10;;;;;;;8.75;2.38;;;;;;;;;;4984488;28;20030;-72
2023/01/18 03:43:36;;;;;;;12.13;2.72;;;;;;;;;;4983897;28;20442;-74
2023/01/18 03:46:06;;;;;;;13.65;2.83;;;;;;;;;;4991797;28;20087;-73
2023/01/18 03:48:33;;;;;;;10.55;2.67;;;;;;;;;;5016317;28;20036;-72
2023/01/18 03:51:02;;;;;;;13.20;2.30;;;;;;;;;;5053100;28;20033;-76
2023/01/18 03:53:38;;;;;;;6.30;2.30;;;;;;;;;;5005882;28;20114;-75
2023/01/18 03:56:07;;;;;;;8.68;2.28;;;;;;;;;;5025248;28;20222;-76
2023/01/18 03:58:35;;;;;;;5.30;2.33;;;;;;;;;;5025904;28;20642;-73
2023/01/18 04:01:04;;;;;;;13.43;2.13;;;;;;;;;;5021464;28;20029;-72
2023/01/18 04:03:30;;;;;;;14.43;3.25;;;;;;;;;;5020651;28;20276;-72
2023/01/18 04:05:57;;;;;;;5.90;2.60;;;;;;;;;;5020842;28;20037;-74
2023/01/18 04:08:22;;;;;;;10.18;2.50;;;;;;;;;;5020579;28;20254;-73
2023/01/18 04:10:48;;;;;;;9.55;2.03;;;;;;;;;;5014557;28;20310;-74
2023/01/18 04:13:13;;;;;;;15.70;2.70;;;;;;;;;;5017488;28;20342;-73
2023/01/18 04:15:41;;;;;;;9.77;2.38;;;;;;;;;;5002836;28;20025;-73
2023/01/18 04:18:07;;;;;;;9.25;2.40;;;;;;;;;;5001284;28;20022;-74
2023/01/18 04:20:35;;;;;;;17.58;2.72;;;;;;;;;;5003254;28;20481;-75
2023/01/18 04:23:00;;;;;;;13.75;3.03;;;;;;;;;;5003004;28;20033;-77
2023/01/18 04:25:26;;;;;;;9.23;2.75;;;;;;;;;;5003510;28;20041;-77
2023/01/18 04:27:51;;;;;;;8.98;2.60;;;;;;;;;;5002447;28;20033;-78
2023/01/18 04:30:19;;;;;;;13.52;3.63;;;;;;;;;;5004278;28;20037;-77
2023/01/18 04:32:45;;;;;;;11.55;3.58;;;;;;;;;;5002977;28;20056;-77
2023/01/18 04:35:11;;;;;;;16.58;3.30;;;;;;;;;;5004365;28;20074;-77
2023/01/18 04:37:37;;;;;;;9.65;3.03;;;;;;;;;;5004036;28;20038;-78
2023/01/18 04:40:03;;;;;;;12.95;2.65;;;;;;;;;;5004153;28;20053;-77
2023/01/18 04:42:30;;;;;;;15.60;2.83;;;;;;;;;;5003275;28;20035;-78
2023/01/18 04:44:56;;;;;;;7.05;3.13;;;;;;;;;;5003769;28;20072;-76
2023/01/18 04:47:21;;;;;;;13.23;2.55;;;;;;;;;;5018880;28;20049;-77
2023/01/18 04:49:46;;;;;;;8.95;2.20;;;;;;;;;;5023881;28;20057;-77
2023/01/18 04:52:12;;;;;;;11.88;2.40;;;;;;;;;;5022433;28;20127;-77
2023/01/18 04:54:37;;;;;;;7.38;2.03;;;;;;;;;;5021604;28;20421;-77
2023/01/18 04:57:03;;;;;;;12.98;2.40;;;;;;;;;;5022738;28;20227;-76
2023/01/18 04:59:29;;;;;;;5.43;2.00;;;;;;;;;;5023797;28;20444;-76
2023/01/18 05:01:54;;;;;;;9.15;1.88;;;;;;;;;;5024230;28;20116;-77
2023/01/18 05:04:22;;;;;;;21.35;2.60;;;;;;;;;;5021424;28;20068;-76
2023/01/18 05:06:47;;;;;;;10.80;2.42;;;;;;;;;;5020298;28;20458;-75
2023/01/18 05:09:13;;;;;;;8.52;2.03;;;;;;;;;;5018533;28;20026;-77
2023/01/18 05:11:39;;;;;;;6.90;1.83;;;;;;;;;;5003114;28;20037;-77
2023/01/18 05:14:05;;;;;;;19.25;2.35;;;;;;;;;;5003235;28;20040;-76
2023/01/18 05:16:30;;;;;;;9.95;2.10;;;;;;;;;;5002082;28;20040;-77
2023/01/18 05:18:56;;;;;;;11.60;2.42;;;;;;;;;;5001947;28;20333;-77
2023/01/18 05:21:21;;;;;;;9.52;2.17;;;;;;;;;;5002819;28;20286;-77
2023/01/18 05:23:46;;;;;;;9.45;2.10;;;;;;;;;;5001580;28;20050;-76
2023/01/18 05:26:16;;;;;;;10.52;2.47;;;;;;;;;;5004509;28;20036;-76
2023/01/18 05:28:42;;;;;;;14.90;2.50;;;;;;;;;;5004173;28;20280;-76
2023/01/18 05:31:08;;;;;;;11.80;2.17;;;;;;;;;;5008730;28;20018;-77
2023/01/18 05:33:35;;;;;;;5.38;1.80;;;;;;;;;;5019874;28;20021;-77
2023/01/18 05:36:02;;;;;;;17.17;2.35;;;;;;;;;;5012802;28;20124;-76
2023/01/18 05:38:27;;;;;;;8.82;2.28;;;;;;;;;;5014791;28;20423;-76
2023/01/18 05:40:53;;;;;;;12.68;2.58;;;;;;;;;;5014836;28;20083;-77
2023/01/18 05:43:22;;;;;;;11.40;2.60;;;;;;;;;;5002720;28;20120;-78
2023/01/18 05:45:50;;;;;;;10.27;2.25;;;;;;;;;;5002562;28;20071;-74
2023/01/18 05:48:15;;;;;;;11.10;2.25;;;;;;;;;;5001849;28;20098;-73
2023/01/18 05:50:42;;;;;;;13.60;2.30;;;;;;;;;;4999649;28;20030;-73
2023/01/18 05:53:08;;;;;;;8.13;1.90;;;;;;;;;;5015867;28;20585;-73
2023/01/18 05:55:33;;;;;;;8.35;2.15;;;;;;;;;;5021534;28;20028;-73
2023/01/18 05:57:58;;;;;;;11.80;2.30;;;;;;;;;;5019650;28;20128;-73
2023/01/18 06:00:24;;;;;;;13.25;2.40;;;;;;;;;;5019520;28;20332;-74
2023/01/18 06:02:49;;;;;;;15.15;2.65;;;;;;;;;;5021567;28;20181;-73
2023/01/18 06:05:14;;;;;;;6.90;1.98;;;;;;;;;;5021590;28;20049;-74
2023/01/18 06:07:41;;;;;;;12.30;2.58;;;;;;;;;;5022642;28;20025;-75
2023/01/18 06:10:09;;;;;;;9.52;1.75;;;;;;;;;;5025790;28;20044;-77
2023/01/18 06:12:35;;;;;;;7.28;1.90;;;;;;;;;;5024548;28;20033;-76
2023/01/18 06:15:00;;;;;;;16.73;2.55;;;;;;;;;;5029147;28;20141;-76
2023/01/18 06:17:25;;;;;;;12.90;2.75;;;;;;;;;;5024245;28;20194;-76
2023/01/18 06:19:51;;;;;;;13.95;2.75;;;;;;;;;;5027702;28;20025;-76
2023/01/18 06:22:19;;;;;;;8.30;2.60;;;;;;;;;;5024542;28;20044;-77
2023/01/18 06:24:44;;;;;;;10.40;2.70;;;;;;;;;;5026193;28;20036;-77
2023/01/18 06:27:12;;;;;;;12.93;3.05;;;;;;;;;;5023993;28;20068;-77
2023/01/18 06:29:38;;;;;;;11.18;2.83;;;;;;;;;;5026829;28;20033;-77
2023/01/18 06:32:03;;;;;;;10.60;2.63;;;;;;;;;;5025102;28;20519;-77
2023/01/18 06:34:29;;;;;;;10.20;2.30;;;;;;;;;;5025318;28;20205;-77
2023/01/18 06:36:54;;;;;;;19.20;2.90;;;;;;;;;;5026429;28;20385;-76
2023/01/18 06:39:19;;;;;;;13.00;2.60;;;;;;;;;;5024639;28;20037;-76
2023/01/18 06:41:47;;;;;;;15.48;3.22;;;;;;;;;;5032697;28;20208;-77
2023/01/18 06:44:13;;;;;;;17.80;3.50;;;;;;;;;;5037302;28;20111;-77
2023/01/18 06:46:38;;;;;;;16.05;3.08;;;;;;;;;;5018656;28;20660;-77
2023/01/18 06:49:03;;;;;;;8.82;2.78;;;;;;;;;;5028850;28;20464;-76
2023/01/18 06:51:29;;;;;;;9.88;2.67;;;;;;;;;;5034132;28;20128;-78
2023/01/18 06:53:54;;;;;;;12.05;2.35;;;;;;;;;;5029572;28;20033;-72
2023/01/18 06:56:19;;;;;;;20.92;3.58;;;;;;;;;;5023964;28;20060;-73
2023/01/18 06:58:45;;;;;;;9.35;2.30;;;;;;;;;;5027472;28;20240;-72
2023/01/18 07:01:10;;;;;;;8.73;2.10;;;;;;;;;;5023093;28;20056;-72
2023/01/18 07:03:36;;;;;;;14.15;2.67;;;;;;;;;;5027683;28;20036;-73
2023/01/18 07:06:05;;;;;;;9.43;2.10;;;;;;;;;;5028613;28;20044;-74
2023/01/18 07:08:34;;;;;;;16.48;3.40;;;;;;;;;;5025032;28;20036;-73
2023/01/18 07:11:03;;;;;;;14.90;3.25;;;;;;;;;;5029352;28;20364;-74
2023/01/18 07:13:28;;;;;;;13.30;2.60;;;;;;;;;;5024932;28;20506;-74
2023/01/18 07:15:56;;;;;;;11.10;2.35;;;;;;;;;;5022780;28;20063;-73
2023/01/18 07:18:22;;;;;;;7.43;2.60;;;;;;;;;;5028342;28;20078;-74
2023/01/18 07:20:54;;;;;;;12.00;2.85;;;;;;;;;;5024403;28;20120;-73
2023/01/18 07:23:20;;;;;;;13.05;3.10;;;;;;;;;;5025179;28;20040;-73
2023/01/18 07:25:45;;;;;;;13.82;2.58;;;;;;;;;;5023332;28;20604;-73
2023/01/18 07:28:11;;;;;;;15.20;2.75;;;;;;;;;;5025240;28;20379;-73
2023/01/18 07:30:37;;;;;;;7.15;2.42;;;;;;;;;;5025904;28;20163;-73
2023/01/18 07:33:02;;;;;;;10.60;2.10;;;;;;;;;;5026251;28;20080;-75
2023/01/18 07:35:28;;;;;;;10.32;2.53;;;;;;;;;;5025190;28;20051;-74
2023/01/18 07:37:53;;;;;;;19.17;3.35;;;;;;;;;;5024497;28;20603;-75
2023/01/18 07:40:21;;;;;;;13.70;2.40;;;;;;;;;;5024432;28;20734;-73
2023/01/18 07:42:47;;;;;;;16.50;2.10;;;;;;;;;;5004993;28;20822;-73
2023/01/18 07:45:13;;;;;;;15.45;1.90;;;;;;;;;;5024819;28;20745;-73
2023/01/18 07:47:41;;;;;;;15.18;2.78;;;;;;;;;;5023633;28;20128;-74
2023/01/18 07:50:07;;;;;;;8.65;2.00;;;;;;;;;;5023003;28;20214;-73
2023/01/18 07:52:33;;;;;;;12.45;2.50;;;;;;;;;;5023444;28;20414;-73
2023/01/18 07:54:58;;;;;;;8.60;2.00;;;;;;;;;;5022953;28;20045;-73
2023/01/18 07:57:24;;;;;;;8.55;1.80;;;;;;;;;;5021659;28;20297;-73
2023/01/18 07:59:50;;;;;;;12.27;2.20;;;;;;;;;;5023466;28;20171;-75
2023/01/18 08:02:15;;;;;;;9.48;2.10;;;;;;;;;;5021144;28;20373;-73
2023/01/18 08:04:48;;;;;;;9.48;2.20;;;;;;;;;;5022941;28;20043;-73
2023/01/18 08:07:14;;;;;;;13.63;2.90;;;;;;;;;;5003816;28;20228;-73
2023/01/18 08:09:39;;;;;;;13.80;2.17;;;;;;;;;;5007820;28;20131;-76
2023/01/18 08:12:06;;;;;;;16.10;2.92;;;;;;;;;;5018416;28;20033;-76
2023/01/18 08:14:32;;;;;;;7.80;2.00;;;;;;;;;;5018039;28;20095;-76
2023/01/18 08:16:57;;;;;;;12.50;2.35;;;;;;;;;;5016589;28;20029;-76
2023/01/18 08:19:22;;;;;;;20.60;2.72;;;;;;;;;;5009345;28;20287;-76
2023/01/18 08:21:50;;;;;;;17.33;2.05;;;;;;;;;;5009854;28;20100;-76
2023/01/18 08:24:15;;;;;;;15.57;2.78;;;;;;;;;;5012524;28;20619;-78
2023/01/18 08:26:41;;;;;;;23.08;3.17;;;;;;;;;;5012986;28;20171;-77
2023/01/18 08:29:06;;;;;;;14.00;2.80;;;;;;;;;;5012675;28;20030;-77
2023/01/18 08:31:34;;;;;;;14.75;2.08;;;;;;;;;;5013073;28;20026;-77
2023/01/18 08:34:00;;;;;;;12.73;2.05;;;;;;;;;;5018573;28;20038;-77
2023/01/18 08:36:26;;;;;;;17.10;3.05;;;;;;;;;;5030271;28;20037;-77
2023/01/18 08:38:58;;;;;;;13.02;2.17;;;;;;;;;;5009423;28;20055;-77
2023/01/18 08:41:29;;;;;;;15.82;2.05;;;;;;;;;;5012770;28;20124;-77
2023/01/18 08:43:55;;;;;;;13.93;2.47;;;;;;;;;;5006863;28;20033;-74
2023/01/18 08:46:21;;;;;;;12.85;2.78;;;;;;;;;;5016675;28;20105;-74
2023/01/18 08:48:51;;;;;;;16.45;2.30;;;;;;;;;;5043613;28;20354;-74
2023/01/18 08:51:20;;;;;;;12.10;2.58;;;;;;;;;;5050919;28;20459;-77
2023/01/18 08:53:46;;;;;;;13.20;2.03;;;;;;;;;;5056215;28;20044;-77
2023/01/18 08:56:11;;;;;;;17.23;2.58;;;;;;;;;;5060961;28;20036;-77
2023/01/18 08:58:37;;;;;;;15.73;2.00;;;;;;;;;;5058165;28;20525;-75
2023/01/18 09:01:05;;;;;;;22.90;2.60;;;;;;;;;;5038166;28;20048;-76
2023/01/18 09:03:31;;;;;;;14.20;2.50;;;;;;;;;;5057731;28;20277;-77
2023/01/18 09:05:59;;;;;;;18.55;1.95;;;;;;;;;;5061599;28;20060;-77
2023/01/18 09:08:25;;;;;;;12.25;1.73;;;;;;;;;;5058441;28;20503;-75
2023/01/18 09:10:50;;;;;;;21.55;2.33;;;;;;;;;;5061642;28;20024;-76
2023/01/18 09:13:15;;;;;;;14.05;2.50;;;;;;;;;;5059851;28;20661;-77
2023/01/18 09:15:40;;;;;;;9.18;1.67;;;;;;;;;;5061601;28;20051;-78
2023/01/18 09:18:07;;;;;;;12.35;1.73;;;;;;;;;;5058626;28;20024;-77
2023/01/18 09:20:35;;;;;;;13.25;2.25;;;;;;;;;;5059025;28;20034;-77
2023/01/18 09:23:04;;;;;;;11.25;2.20;;;;;;;;;;5045233;28;20621;-75
2023/01/18 09:25:29;;;;;;;20.30;2.75;;;;;;;;;;5042766;28;20079;-75
2023/01/18 09:27:55;;;;;;;16.35;2.00;;;;;;;;;;5043346;28;20493;-74
2023/01/18 09:30:20;;;;;;;12.05;2.03;;;;;;;;;;5056567;28;20033;-77
2023/01/18 09:32:46;;;;;;;22.30;2.83;;;;;;;;;;5051017;28;20047;-76
2023/01/18 09:35:16;;;;;;;12.48;1.67;;;;;;;;;;5039952;28;20095;-73
2023/01/18 09:37:42;;;;;;;16.52;2.15;;;;;;;;;;5040181;28;20214;-74
2023/01/18 09:40:13;;;;;;;13.10;2.40;;;;;;;;;;5041266;28;20032;-75
2023/01/18 09:42:43;;;;;;;11.95;1.83;;;;;;;;;;5042660;28;20108;-74
2023/01/18 09:45:19;;;;;;;14.38;2.05;;;;;;;;;;5045670;28;20055;-74
2023/01/18 09:47:46;;;;;;;13.30;1.88;;;;;;;;;;5027607;28;20383;-74
2023/01/18 09:50:16;;;;;;;18.38;2.85;;;;;;;;;;5025961;28;20234;-75
2023/01/18 09:52:44;;;;;;;15.35;2.30;;;;;;;;;;5030777;28;20029;-76
2023/01/18 09:55:10;;;;;;;17.10;2.38;;;;;;;;;;5041687;28;20420;-76
2023/01/18 09:57:54;;;;;;;21.17;2.50;;;;;;;;;;5045455;28;20029;-76
2023/01/18 10:00:19;;;;;;;12.60;2.30;;;;;;;;;;5037622;28;20763;-76
2023/01/18 10:02:50;;;;;;;25.40;2.50;;;;;;;;;;5038008;28;20131;-77
2023/01/18 10:05:20;;;;;;;23.30;3.05;;;;;;;;;;5039237;28;20040;-77
2023/01/18 10:08:01;;;;;;;22.42;2.55;;;;;;;;;;5036800;28;20280;-76
2023/01/18 10:10:31;;;;;;;13.98;1.90;;;;;;;;;;5037038;28;20035;-76
2023/01/18 10:13:05;;;;;;;7.93;1.80;;;;;;;;;;5042498;28;20525;-75
2023/01/18 10:15:35;;;;;;;14.00;2.30;;;;;;;;;;5019886;28;20056;-75
2023/01/18 10:18:00;;;;;;;17.25;2.33;;;;;;;;;;5023189;28;20112;-76
2023/01/18 10:20:39;;;;;;;16.67;1.90;;;;;;;;;;5016519;28;20512;-76
2023/01/18 10:23:08;;;;;;;14.07;2.50;;;;;;;;;;5035096;28;20136;-76
2023/01/18 10:25:41;;;;;;;17.58;2.30;;;;;;;;;;5039154;28;20516;-76
2023/01/18 10:28:27;;;;;;;11.23;2.20;;;;;;;;;;5037549;28;20047;-76
2023/01/18 10:31:14;;;;;;;25.83;2.65;;;;;;;;;;5022755;28;20090;-77
2023/01/18 10:33:41;;;;;;;28.13;3.53;;;;;;;;;;5036393;28;20485;-76
2023/01/18 10:36:17;;;;;;;9.73;2.83;;;;;;;;;;5039940;28;20732;-74
2023/01/18 10:38:42;;;;;;;13.27;2.83;;;;;;;;;;5041876;28;20078;-76
2023/01/18 10:41:14;;;;;;;15.32;2.85;;;;;;;;;;5042755;28;20036;-77
2023/01/18 10:43:43;;;;;;;;;;;;;;;;;;5042014;28;20029;-76
2023/01/18 10:46:12;;;;;;;15.93;2.60;;;;;;;;;;5041899;28;19935;-77
2023/01/18 10:48:44;;;;;;;17.98;3.35;;;;;;;;;;5045459;28;20025;-76
2023/01/18 10:51:21;;;;;;;7.60;1.90;;;;;;;;;;5041856;28;20343;-76
2023/01/18 10:53:47;;;;;;;24.23;2.58;;;;;;;;;;5032957;28;20026;-77
2023/01/18 10:56:15;;;;;;;17.63;2.78;;;;;;;;;;5036674;28;20023;-76
2023/01/18 10:58:45;;;;;;;16.48;3.10;;;;;;;;;;5035948;28;20078;-77
2023/01/18 11:01:16;;;;;;;19.55;2.53;;;;;;;;;;5029554;28;20344;-76
2023/01/18 11:03:46;;;;;;;15.48;2.63;;;;;;;;;;5019826;28;20024;-77
2023/01/18 11:06:15;;;;;;;18.60;2.78;;;;;;;;;;5014860;28;20037;-76
2023/01/18 11:08:41;;;;;;;18.42;2.50;;;;;;;;;;5016685;28;20080;-75
2023/01/18 11:11:17;;;;;;;15.32;2.55;;;;;;;;;;5018852;28;20021;-78
2023/01/18 11:13:44;;;;;;;18.73;2.97;;;;;;;;;;5018780;28;20372;-74
2023/01/18 11:16:14;;;;;;;16.52;2.40;;;;;;;;;;5019806;28;20028;-76
2023/01/18 11:18:55;;;;;;;18.30;2.88;;;;;;;;;;5020877;28;20029;-76
2023/01/18 11:21:21;;;;;;;20.00;2.78;;;;;;;;;;5018143;28;20037;-76
2023/01/18 11:23:48;;;;;;;16.58;3.00;;;;;;;;;;5019090;28;20029;-75
2023/01/18 11:26:18;;;;;;;20.42;3.03;;;;;;;;;;5015880;28;20691;-76
2023/01/18 11:28:52;;;;;;;20.60;3.55;;;;;;;;;;5018595;28;20184;-76
2023/01/18 11:31:19;;;;;;;17.08;2.92;;;;;;;;;;5020537;28;20071;-75
2023/01/18 11:33:48;;;;;;;22.63;3.42;;;;;;;;;;5021699;28;20064;-74
2023/01/18 11:36:17;;;;;;;14.48;2.80;;;;;;;;;;5022132;28;20034;-75
2023/01/18 11:38:43;;;;;;;14.80;2.28;;;;;;;;;;5022996;28;20036;-76
2023/01/18 11:41:13;;;;;;;10.93;2.30;;;;;;;;;;5024258;28;20077;-75
2023/01/18 11:43:40;;;;;;;14.02;2.65;;;;;;;;;;5024593;28;20080;-75
2023/01/18 11:46:16;;;;;;;20.83;3.00;;;;;;;;;;5028980;28;20052;-76
2023/01/18 11:48:53;;;;;;;24.25;2.83;;;;;;;;;;5062863;28;20109;-76
2023/01/18 11:51:24;;;;;;;17.08;2.08;;;;;;;;;;5064654;28;20586;-77
2023/01/18 11:53:53;;;;;;;13.40;2.50;;;;;;;;;;5063533;28;20029;-75
2023/01/18 11:56:21;;;;;;;19.15;2.78;;;;;;;;;;5065015;28;20484;-74
2023/01/18 11:58:48;;;;;;;17.10;2.70;;;;;;;;;;5059810;28;20025;-76
2023/01/18 12:01:23;;;;;;;16.88;2.65;;;;;;;;;;5063000;28;20032;-74
2023/01/18 12:03:55;;;;;;;18.50;3.50;;;;;;;;;;5062292;28;20020;-75
2023/01/18 12:06:40;;;;;;;13.75;2.28;;;;;;;;;;5062537;28;20048;-75
2023/01/18 12:09:26;;;;;;;19.40;2.78;;;;;;;;;;5049356;28;20021;-75
2023/01/18 12:11:57;;;;;;;18.85;3.25;;;;;;;;;;5042363;28;20564;-75
2023/01/18 12:14:32;;;;;;;23.17;4.15;;;;;;;;;;5060829;28;20025;-75
2023/01/18 12:17:01;;;;;;;18.90;2.53;;;;;;;;;;5043062;28;20028;-75
2023/01/18 12:19:38;;;;;;;18.60;3.03;;;;;;;;;;5043280;28;20024;-75
2023/01/18 12:22:36;;;;;;;19.52;2.40;;;;;;;;;;5042860;28;20508;-75
2023/01/18 12:25:01;;;;;;;13.38;2.55;;;;;;;;;;4996901;28;20044;-74
2023/01/18 12:27:26;;;;;;;22.35;3.30;;;;;;;;;;5043634;28;20025;-76
2023/01/18 12:30:10;;;;;;;18.20;2.63;;;;;;;;;;5044624;28;20085;-77
2023/01/18 12:32:53;;;;;;;15.70;2.60;;;;;;;;;;5058187;28;20021;-78
2023/01/18 12:35:46;;;;;;;18.88;3.38;;;;;;;;;;5061561;28;20036;-77
2023/01/18 12:38:28;;;;;;;20.02;2.83;;;;;;;;;;5064121;28;20457;-77
2023/01/18 12:40:53;;;;;;;;;;;;;;;;;;5053058;28;20516;-76
2023/01/18 12:43:31;;;;;;;19.10;2.70;;;;;;;;;;5064190;28;19939;-76
2023/01/18 12:46:09;;;;;;;31.90;3.30;;;;;;;;;;5065035;28;20047;-77
2023/01/18 12:48:39;;;;;;;16.98;2.65;;;;;;;;;;5064852;28;20367;-75
2023/01/18 12:51:15;;;;;;;28.45;3.67;;;;;;;;;;5064682;28;20104;-75
2023/01/18 12:53:44;;;;;;;25.05;2.80;;;;;;;;;;5042493;28;20525;-73
2023/01/18 12:56:18;;;;;;;19.98;3.08;;;;;;;;;;5042573;28;20024;-74
2023/01/18 12:58:48;;;;;;;18.80;3.42;;;;;;;;;;5036241;28;20036;-75
2023/01/18 13:01:19;;;;;;;22.25;2.92;;;;;;;;;;5021915;28;20068;-76
2023/01/18 13:03:48;;;;;;;20.17;3.03;;;;;;;;;;5022977;28;20484;-75
2023/01/18 13:06:17;;;;;;;23.40;3.13;;;;;;;;;;5021036;28;20037;-74
2023/01/18 13:08:52;;;;;;;22.52;2.58;;;;;;;;;;5024049;28;20482;-75
2023/01/18 13:11:33;;;;;;;25.95;3.53;;;;;;;;;;5023188;28;20354;-75
2023/01/18 13:14:04;;;;;;;17.42;2.88;;;;;;;;;;5021014;28;20431;-75
2023/01/18 13:16:30;;;;;;;18.27;2.42;;;;;;;;;;5019666;28;20270;-74
2023/01/18 13:19:02;;;;;;;20.42;3.20;;;;;;;;;;5021715;28;20032;-76
2023/01/18 13:21:46;;;;;;;17.58;2.40;;;;;;;;;;5020305;28;20033;-73
2023/01/18 13:24:28;;;;;;;24.85;3.00;;;;;;;;;;5022769;28;20033;-75
2023/01/18 13:27:26;;;;;;;28.05;4.35;;;;;;;;;;5003770;28;20032;-75
2023/01/18 13:29:51;;;;;;;22.98;3.20;;;;;;;;;;5008711;28;20021;-76
2023/01/18 13:32:20;;;;;;;19.95;3.40;;;;;;;;;;5052893;28;20047;-75
2023/01/18 13:34:54;;;;;;;17.38;3.00;;;;;;;;;;5022053;28;20017;-75
2023/01/18 13:37:40;;;;;;;25.10;3.60;;;;;;;;;;5002382;28;20033;-76
2023/01/18 13:40:06;;;;;;;19.83;3.25;;;;;;;;;;5002509;28;20106;-76
2023/01/18 13:42:33;;;;;;;21.67;3.00;;;;;;;;;;5001235;28;20029;-76
2023/01/18 13:45:19;;;;;;;16.83;3.20;;;;;;;;;;5018829;28;20200;-74
2023/01/18 13:47:48;;;;;;;23.92;3.30;;;;;;;;;;5018145;28;20045;-75
2023/01/18 13:50:38;;;;;;;24.52;3.65;;;;;;;;;;5011115;28;20084;-75
2023/01/18 13:53:15;;;;;;;20.63;3.97;;;;;;;;;;5020204;28;20037;-75
2023/01/18 13:55:54;;;;;;;22.27;3.75;;;;;;;;;;5000810;28;20280;-75
2023/01/18 13:58:31;;;;;;;37.35;4.30;;;;;;;;;;5015303;28;20107;-74
2023/01/18 14:01:02;;;;;;;21.08;3.60;;;;;;;;;;5022360;28;20630;-75
2023/01/18 14:03:30;;;;;;;22.90;2.70;;;;;;;;;;5052364;28;20548;-77
2023/01/18 14:06:25;;;;;;;24.13;4.13;;;;;;;;;;5021606;28;20788;-77
2023/01/18 14:08:53;;;;;;;32.58;4.57;;;;;;;;;;5021745;28;20040;-75
2023/01/18 14:11:26;;;;;;;25.25;3.85;;;;;;;;;;5021998;28;20650;-75
2023/01/18 14:13:51;;;;;;;24.10;4.35;;;;;;;;;;5052486;28;20025;-76
2023/01/18 14:16:27;;;;;;;25.50;5.78;;;;;;;;;;5021633;28;20033;-75
2023/01/18 14:18:55;;;;;;;20.83;3.55;;;;;;;;;;5021599;28;20313;-76
2023/01/18 14:21:29;;;;;;;27.45;5.60;;;;;;;;;;5019686;28;20094;-73
2023/01/18 14:24:05;;;;;;;21.38;4.20;;;;;;;;;;5021241;28;20685;-74
2023/01/18 14:26:34;;;;;;;17.02;3.92;;;;;;;;;;5021471;28;20025;-75
2023/01/18 14:29:02;;;;;;;21.77;4.15;;;;;;;;;;5022637;28;20029;-75
2023/01/18 14:31:33;;;;;;;18.48;3.70;;;;;;;;;;5025169;28;20033;-74
2023/01/18 14:34:20;;;;;;;17.25;3.55;;;;;;;;;;5025211;28;20171;-76
2023/01/18 14:36:45;;;;;;;25.02;4.72;;;;;;;;;;5021279;28;20033;-75
2023/01/18 14:39:16;;;;;;;18.40;4.22;;;;;;;;;;5025577;28;20075;-76
2023/01/18 14:41:43;;;;;;;27.90;4.55;;;;;;;;;;5024937;28;20052;-76
2023/01/18 14:44:14;;;;;;;16.23;3.20;;;;;;;;;;5022930;28;20040;-75
2023/01/18 14:46:46;;;;;;;15.70;3.22;;;;;;;;;;5031380;28;20424;-75
2023/01/18 14:49:13;;;;;;;19.80;3.08;;;;;;;;;;5045230;28;20035;-75
2023/01/18 14:51:44;;;;;;;19.35;2.90;;;;;;;;;;5045068;28;20536;-74
2023/01/18 14:54:12;;;;;;;21.95;3.90;;;;;;;;;;5045118;28;20439;-75
2023/01/18 14:56:41;;;;;;;23.65;3.72;;;;;;;;;;5023515;28;20025;-73
2023/01/18 14:59:22;;;;;;;24.05;4.47;;;;;;;;;;5002591;28;20030;-73
2023/01/18 15:01:52;;;;;;;20.92;3.47;;;;;;;;;;5022637;28;20037;-75
2023/01/18 15:04:25;;;;;;;22.65;4.40;;;;;;;;;;5024182;28;20031;-73
2023/01/18 15:07:02;;;;;;;25.25;3.67;;;;;;;;;;5024294;28;20024;-74
2023/01/18 15:09:30;;;;;;;22.35;4.13;;;;;;;;;;5022111;28;20310;-74
2023/01/18 15:11:56;;;;;;;24.00;3.22;;;;;;;;;;5024348;28;20254;-73
2023/01/18 15:14:24;;;;;;;16.10;3.22;;;;;;;;;;5024683;28;20037;-73
2023/01/18 15:16:52;;;;;;;25.45;4.38;;;;;;;;;;5023957;28;20063;-73
2023/01/18 15:19:22;;;;;;;24.17;4.78;;;;;;;;;;5023891;28;20057;-74